LOT3LX EPWA-EPZG
Flight info
| Callsign | LOT3LX |
|---|---|
| Flight time | 0h 33m |
| Altitude | 28000 |
| Route | LOLSI T174 INDIG L980 OBOLA |
| Aircraft | E190/M-SDE3GILORVW/S |
Departure
| Time | 2026-05-06 14:48 |
|---|---|
| Airport | Warsaw Chopin Airport (EPWA) |
Arrival
| Time | 2026-05-06 15:22 |
|---|---|
| Airport | Zielona Góra-Babimost Airport (EPZG) |
| Time | Latitude | Longitude | Altitude | Speed | Heading |
|---|---|---|---|---|---|
| 2026-05-06 14:33 | 52.17682 | 20.96259 | 348 ft | 0 kts | 242° |
| 2026-05-06 14:44 | 52.17666 | 20.96211 | 352 ft | 10 kts | 242° |
| 2026-05-06 14:45 | 52.17467 | 20.96329 | 357 ft | 27 kts | 151° |
| 2026-05-06 14:45 | 52.17268 | 20.96501 | 353 ft | 35 kts | 152° |
| 2026-05-06 14:45 | 52.17071 | 20.96672 | 348 ft | 30 kts | 151° |
| 2026-05-06 14:45 | 52.16886 | 20.96834 | 357 ft | 30 kts | 151° |
| 2026-05-06 14:46 | 52.16741 | 20.96961 | 351 ft | 16 kts | 152° |
| 2026-05-06 14:46 | 52.16648 | 20.97098 | 348 ft | 20 kts | 113° |
| 2026-05-06 14:46 | 52.16588 | 20.97310 | 354 ft | 18 kts | 115° |
| 2026-05-06 14:46 | 52.16519 | 20.97310 | 353 ft | 14 kts | 252° |
| 2026-05-06 14:47 | 52.16509 | 20.97126 | 344 ft | 19 kts | 266° |
| 2026-05-06 14:47 | 52.16504 | 20.96977 | 349 ft | 11 kts | 266° |
| 2026-05-06 14:47 | 52.16534 | 20.96855 | 350 ft | 21 kts | 295° |
| 2026-05-06 14:47 | 52.16693 | 20.96283 | 349 ft | 90 kts | 293° |
| 2026-05-06 14:48 | 52.17040 | 20.95065 | 356 ft | 149 kts | 295° |
| 2026-05-06 14:48 | 52.17511 | 20.93398 | 806 ft | 171 kts | 297° |
| 2026-05-06 14:48 | 52.18029 | 20.91585 | 1109 ft | 175 kts | 296° |
| 2026-05-06 14:48 | 52.18321 | 20.89692 | 1047 ft | 172 kts | 276° |
| 2026-05-06 14:49 | 52.18252 | 20.87770 | 847 ft | 171 kts | 268° |
| 2026-05-06 14:49 | 52.18125 | 20.85801 | 832 ft | 180 kts | 269° |
| 2026-05-06 14:49 | 52.18020 | 20.83742 | 1285 ft | 180 kts | 275° |
| 2026-05-06 14:49 | 52.18160 | 20.81753 | 1697 ft | 181 kts | 285° |
| 2026-05-06 14:50 | 52.18316 | 20.79605 | 2099 ft | 201 kts | 276° |
| 2026-05-06 14:50 | 52.18286 | 20.77166 | 2513 ft | 226 kts | 271° |
| 2026-05-06 14:50 | 52.18214 | 20.74563 | 3333 ft | 230 kts | 271° |
| 2026-05-06 14:50 | 52.18161 | 20.71868 | 3924 ft | 248 kts | 272° |
| 2026-05-06 14:51 | 52.18148 | 20.68996 | 4548 ft | 259 kts | 274° |
| 2026-05-06 14:51 | 52.18148 | 20.66039 | 5348 ft | 262 kts | 273° |
| 2026-05-06 14:51 | 52.18136 | 20.63047 | 6085 ft | 265 kts | 274° |
| 2026-05-06 14:51 | 52.18133 | 20.60024 | 6785 ft | 269 kts | 274° |
| 2026-05-06 14:52 | 52.18136 | 20.56965 | 7485 ft | 270 kts | 273° |
| 2026-05-06 14:52 | 52.18122 | 20.53896 | 8162 ft | 272 kts | 272° |
| 2026-05-06 14:52 | 52.18101 | 20.50795 | 8777 ft | 276 kts | 273° |
| 2026-05-06 14:52 | 52.18090 | 20.47654 | 9404 ft | 279 kts | 272° |
| 2026-05-06 14:53 | 52.18077 | 20.44486 | 10068 ft | 282 kts | 272° |
| 2026-05-06 14:53 | 52.18061 | 20.41205 | 10395 ft | 296 kts | 273° |
| 2026-05-06 14:53 | 52.18050 | 20.37773 | 10830 ft | 307 kts | 272° |
| 2026-05-06 14:53 | 52.18052 | 20.34273 | 11454 ft | 311 kts | 272° |
| 2026-05-06 14:54 | 52.18039 | 20.30729 | 12126 ft | 313 kts | 272° |
| 2026-05-06 14:54 | 52.18024 | 20.27153 | 12786 ft | 317 kts | 272° |
| 2026-05-06 14:54 | 52.18000 | 20.23538 | 13453 ft | 320 kts | 272° |
| 2026-05-06 14:54 | 52.17973 | 20.19889 | 14107 ft | 325 kts | 271° |
| 2026-05-06 14:55 | 52.17942 | 20.16207 | 14810 ft | 328 kts | 272° |
| 2026-05-06 14:55 | 52.17920 | 20.12475 | 15483 ft | 331 kts | 272° |
| 2026-05-06 14:55 | 52.17912 | 20.08714 | 16164 ft | 334 kts | 272° |
| 2026-05-06 14:55 | 52.17889 | 20.04906 | 16927 ft | 339 kts | 272° |
| 2026-05-06 14:56 | 52.17854 | 20.01072 | 17630 ft | 340 kts | 272° |
| 2026-05-06 14:56 | 52.17820 | 19.97194 | 18269 ft | 343 kts | 272° |
| 2026-05-06 14:56 | 52.17788 | 19.93284 | 18867 ft | 346 kts | 272° |
| 2026-05-06 14:56 | 52.17765 | 19.89341 | 19422 ft | 351 kts | 272° |
| 2026-05-06 14:57 | 52.17741 | 19.85341 | 19972 ft | 353 kts | 272° |
| 2026-05-06 14:57 | 52.17799 | 19.81333 | 20563 ft | 356 kts | 275° |
| 2026-05-06 14:57 | 52.17909 | 19.77288 | 21096 ft | 358 kts | 275° |
| 2026-05-06 14:57 | 52.18015 | 19.73211 | 21573 ft | 363 kts | 274° |
| 2026-05-06 14:58 | 52.18097 | 19.69087 | 22088 ft | 366 kts | 274° |
| 2026-05-06 14:58 | 52.18172 | 19.64931 | 22582 ft | 370 kts | 273° |
| 2026-05-06 14:58 | 52.18247 | 19.60735 | 23118 ft | 372 kts | 274° |
| 2026-05-06 14:58 | 52.18295 | 19.57936 | 23445 ft | 374 kts | 274° |
| 2026-05-06 14:59 | 52.18372 | 19.53675 | 23928 ft | 378 kts | 274° |
| 2026-05-06 14:59 | 52.18446 | 19.49383 | 24478 ft | 380 kts | 274° |
| 2026-05-06 14:59 | 52.18514 | 19.45057 | 24998 ft | 383 kts | 274° |
| 2026-05-06 14:59 | 52.18583 | 19.40695 | 25466 ft | 387 kts | 273° |
| 2026-05-06 15:00 | 52.18649 | 19.36298 | 25942 ft | 389 kts | 274° |
| 2026-05-06 15:00 | 52.18721 | 19.31872 | 26435 ft | 391 kts | 273° |
| 2026-05-06 15:00 | 52.18790 | 19.27419 | 26840 ft | 395 kts | 274° |
| 2026-05-06 15:00 | 52.18860 | 19.22938 | 27275 ft | 397 kts | 274° |
| 2026-05-06 15:01 | 52.18930 | 19.18420 | 27688 ft | 399 kts | 274° |
| 2026-05-06 15:01 | 52.18992 | 19.13902 | 28132 ft | 398 kts | 274° |
| 2026-05-06 15:01 | 52.19053 | 19.09317 | 28129 ft | 410 kts | 273° |
| 2026-05-06 15:01 | 52.19115 | 19.04602 | 28145 ft | 421 kts | 273° |
| 2026-05-06 15:02 | 52.19184 | 18.99769 | 28028 ft | 432 kts | 273° |
| 2026-05-06 15:02 | 52.19306 | 18.89867 | 27991 ft | 441 kts | 272° |
| 2026-05-06 15:02 | 52.19364 | 18.84858 | 27994 ft | 443 kts | 273° |
| 2026-05-06 15:03 | 52.19427 | 18.79843 | 27994 ft | 442 kts | 273° |
| 2026-05-06 15:03 | 52.19530 | 18.69786 | 27996 ft | 444 kts | 272° |
| 2026-05-06 15:03 | 52.19580 | 18.64750 | 28000 ft | 444 kts | 272° |
| 2026-05-06 15:04 | 52.19629 | 18.59715 | 28003 ft | 444 kts | 273° |
| 2026-05-06 15:04 | 52.19723 | 18.49661 | 28004 ft | 444 kts | 272° |
| 2026-05-06 15:05 | 52.19813 | 18.39606 | 27999 ft | 444 kts | 272° |
| 2026-05-06 15:05 | 52.19887 | 18.29535 | 28000 ft | 444 kts | 273° |
| 2026-05-06 15:06 | 52.19961 | 18.19468 | 28002 ft | 443 kts | 272° |
| 2026-05-06 15:06 | 52.20028 | 18.09489 | 28004 ft | 444 kts | 272° |
| 2026-05-06 15:07 | 52.20082 | 17.99428 | 28006 ft | 443 kts | 272° |
| 2026-05-06 15:07 | 52.20132 | 17.89373 | 27999 ft | 444 kts | 272° |
| 2026-05-06 15:07 | 52.20160 | 17.84340 | 28000 ft | 445 kts | 272° |
| 2026-05-06 15:08 | 52.20174 | 17.79303 | 28002 ft | 444 kts | 272° |
| 2026-05-06 15:08 | 52.20203 | 17.69230 | 27997 ft | 444 kts | 272° |
| 2026-05-06 15:08 | 52.20215 | 17.64198 | 28000 ft | 444 kts | 272° |
| 2026-05-06 15:09 | 52.20226 | 17.59162 | 28001 ft | 444 kts | 272° |
| 2026-05-06 15:09 | 52.20240 | 17.54156 | 27730 ft | 437 kts | 272° |
| 2026-05-06 15:09 | 52.20249 | 17.49295 | 27452 ft | 420 kts | 271° |
| 2026-05-06 15:09 | 52.20241 | 17.44580 | 26872 ft | 414 kts | 272° |
| 2026-05-06 15:10 | 52.20244 | 17.39933 | 26317 ft | 406 kts | 272° |
| 2026-05-06 15:10 | 52.20247 | 17.35379 | 25779 ft | 398 kts | 272° |
| 2026-05-06 15:10 | 52.20242 | 17.30903 | 25258 ft | 392 kts | 272° |
| 2026-05-06 15:10 | 52.20241 | 17.26499 | 24743 ft | 386 kts | 272° |
| 2026-05-06 15:11 | 52.20242 | 17.22149 | 24241 ft | 381 kts | 272° |
| 2026-05-06 15:11 | 52.20241 | 17.17844 | 23732 ft | 378 kts | 272° |
| 2026-05-06 15:11 | 52.20233 | 17.13570 | 23243 ft | 376 kts | 271° |
| 2026-05-06 15:11 | 52.20222 | 17.09310 | 22742 ft | 375 kts | 271° |
| 2026-05-06 15:12 | 52.20207 | 17.05075 | 22263 ft | 373 kts | 272° |
| 2026-05-06 15:12 | 52.20193 | 17.00854 | 21755 ft | 371 kts | 271° |
| 2026-05-06 15:12 | 52.20173 | 16.96661 | 21279 ft | 368 kts | 272° |
| 2026-05-06 15:12 | 52.20156 | 16.92507 | 20776 ft | 366 kts | 271° |
| 2026-05-06 15:13 | 52.20129 | 16.88384 | 20315 ft | 362 kts | 271° |
| 2026-05-06 15:13 | 52.20099 | 16.84297 | 19596 ft | 362 kts | 272° |
| 2026-05-06 15:13 | 52.20138 | 16.80114 | 18383 ft | 375 kts | 274° |
| 2026-05-06 15:13 | 52.20229 | 16.75817 | 17117 ft | 385 kts | 275° |
| 2026-05-06 15:14 | 52.20326 | 16.71411 | 15749 ft | 392 kts | 274° |
| 2026-05-06 15:14 | 52.20407 | 16.66973 | 14734 ft | 383 kts | 274° |
| 2026-05-06 15:14 | 52.20479 | 16.62795 | 13740 ft | 364 kts | 274° |
| 2026-05-06 15:14 | 52.20546 | 16.58752 | 12668 ft | 350 kts | 274° |
| 2026-05-06 15:15 | 52.20616 | 16.54849 | 11538 ft | 340 kts | 274° |
| 2026-05-06 15:15 | 52.20687 | 16.51035 | 10335 ft | 334 kts | 274° |
| 2026-05-06 15:15 | 52.20752 | 16.47278 | 9070 ft | 330 kts | 275° |
| 2026-05-06 15:15 | 52.20801 | 16.43556 | 7838 ft | 327 kts | 273° |
| 2026-05-06 15:16 | 52.20851 | 16.40001 | 7395 ft | 300 kts | 274° |
| 2026-05-06 15:16 | 52.20894 | 16.36750 | 7194 ft | 276 kts | 274° |
| 2026-05-06 15:16 | 52.20947 | 16.33626 | 6846 ft | 275 kts | 275° |
| 2026-05-06 15:16 | 52.21009 | 16.30509 | 6444 ft | 274 kts | 275° |
| 2026-05-06 15:17 | 52.21063 | 16.27431 | 6101 ft | 270 kts | 275° |
| 2026-05-06 15:17 | 52.21116 | 16.24391 | 5753 ft | 267 kts | 275° |
| 2026-05-06 15:17 | 52.21160 | 16.21386 | 5395 ft | 265 kts | 274° |
| 2026-05-06 15:17 | 52.21201 | 16.18400 | 5037 ft | 262 kts | 275° |
| 2026-05-06 15:18 | 52.21242 | 16.15448 | 4692 ft | 259 kts | 273° |
| 2026-05-06 15:18 | 52.21281 | 16.12520 | 4356 ft | 258 kts | 274° |
| 2026-05-06 15:18 | 52.21301 | 16.09608 | 4177 ft | 251 kts | 274° |
| 2026-05-06 15:18 | 52.21304 | 16.06780 | 4206 ft | 251 kts | 269° |
| 2026-05-06 15:19 | 52.20850 | 16.03978 | 4230 ft | 263 kts | 252° |
| 2026-05-06 15:19 | 52.20080 | 16.01260 | 4291 ft | 265 kts | 246° |
| 2026-05-06 15:19 | 52.19221 | 15.98479 | 3693 ft | 281 kts | 247° |
| 2026-05-06 15:19 | 52.18410 | 15.95629 | 2935 ft | 275 kts | 249° |
| 2026-05-06 15:20 | 52.17611 | 15.92781 | 1978 ft | 278 kts | 248° |
| 2026-05-06 15:20 | 52.16774 | 15.89933 | 1387 ft | 271 kts | 248° |
| 2026-05-06 15:20 | 52.16000 | 15.87313 | 1007 ft | 241 kts | 248° |
| 2026-05-06 15:20 | 52.15341 | 15.84993 | 699 ft | 210 kts | 250° |
| 2026-05-06 15:21 | 52.14767 | 15.83014 | 422 ft | 178 kts | 248° |
| 2026-05-06 15:21 | 52.14282 | 15.81339 | 217 ft | 150 kts | 248° |
| 2026-05-06 15:21 | 52.13894 | 15.79996 | 195 ft | 106 kts | 244° |
| 2026-05-06 15:21 | 52.13651 | 15.79163 | 197 ft | 59 kts | 245° |
| 2026-05-06 15:22 | 52.13518 | 15.78704 | 202 ft | 34 kts | 244° |
| 2026-05-06 15:22 | 52.13434 | 15.78414 | 201 ft | 22 kts | 245° |
| 2026-05-06 15:22 | 52.13394 | 15.78248 | 190 ft | 15 kts | 274° |
| 2026-05-06 15:22 | 52.13474 | 15.78139 | 193 ft | 11 kts | 334° |
| 2026-05-06 15:23 | 52.13545 | 15.78085 | 198 ft | 12 kts | 334° |
| 2026-05-06 15:23 | 52.13640 | 15.78011 | 195 ft | 17 kts | 335° |
| 2026-05-06 15:23 | 52.13736 | 15.77936 | 202 ft | 14 kts | 327° |
| 2026-05-06 15:23 | 52.13741 | 15.77870 | 194 ft | 3 kts | 208° |
| 2026-05-06 15:24 | 52.13725 | 15.77881 | 201 ft | 1 kts | 160° |
| 2026-05-06 15:24 | 52.13723 | 15.77882 | 198 ft | 0 kts | 159° |